sensor_id;sensor_type;location;lat;lon;timestamp;pressure;altitude;pressure_sealevel;temperature;humidity
50011;BME280;35899;50.352;19.390;2022-12-07T00:01:23;97212.06;;;1.07;100.00
50011;BME280;35899;50.352;19.390;2022-12-07T00:03:55;97200.92;;;1.08;100.00
50011;BME280;35899;50.352;19.390;2022-12-07T00:06:25;97206.48;;;1.08;100.00
50011;BME280;35899;50.352;19.390;2022-12-07T00:08:53;97209.56;;;1.06;100.00
50011;BME280;35899;50.352;19.390;2022-12-07T00:11:21;97204.15;;;1.03;100.00
50011;BME280;35899;50.352;19.390;2022-12-07T00:13:53;97204.15;;;1.03;100.00
50011;BME280;35899;50.352;19.390;2022-12-07T00:16:23;97207.12;;;1.03;100.00
50011;BME280;35899;50.352;19.390;2022-12-07T00:18:51;97205.84;;;1.03;100.00
50011;BME280;35899;50.352;19.390;2022-12-07T00:21:23;97208.86;;;1.02;100.00
50011;BME280;35899;50.352;19.390;2022-12-07T00:23:53;97201.20;;;1.02;100.00
50011;BME280;35899;50.352;19.390;2022-12-07T00:26:23;97201.59;;;1.03;100.00
50011;BME280;35899;50.352;19.390;2022-12-07T00:28:55;97200.22;;;1.05;100.00
50011;BME280;35899;50.352;19.390;2022-12-07T00:31:25;97203.75;;;1.02;100.00
50011;BME280;35899;50.352;19.390;2022-12-07T00:33:53;97191.73;;;1.04;100.00
50011;BME280;35899;50.352;19.390;2022-12-07T00:36:22;97201.08;;;1.05;100.00
50011;BME280;35899;50.352;19.390;2022-12-07T00:38:49;97203.99;;;1.06;100.00
50011;BME280;35899;50.352;19.390;2022-12-07T00:41:21;97195.96;;;1.05;100.00
50011;BME280;35899;50.352;19.390;2022-12-07T00:43:47;97194.23;;;1.06;100.00
50011;BME280;35899;50.352;19.390;2022-12-07T00:46:15;97192.89;;;1.07;100.00
50011;BME280;35899;50.352;19.390;2022-12-07T00:48:42;97189.12;;;1.06;100.00
50011;BME280;35899;50.352;19.390;2022-12-07T00:51:10;97183.19;;;1.05;100.00
50011;BME280;35899;50.352;19.390;2022-12-07T00:53:38;97184.06;;;1.04;100.00
50011;BME280;35899;50.352;19.390;2022-12-07T00:56:17;97179.47;;;1.02;100.00
50011;BME280;35899;50.352;19.390;2022-12-07T00:58:40;97181.20;;;1.02;100.00
50011;BME280;35899;50.352;19.390;2022-12-07T01:01:08;97183.00;;;1.00;100.00
50011;BME280;35899;50.352;19.390;2022-12-07T01:03:35;97185.92;;;1.01;100.00
50011;BME280;35899;50.352;19.390;2022-12-07T01:06:03;97184.28;;;1.00;100.00
50011;BME280;35899;50.352;19.390;2022-12-07T01:08:30;97191.61;;;0.97;100.00
50011;BME280;35899;50.352;19.390;2022-12-07T01:11:01;97186.59;;;0.95;100.00
50011;BME280;35899;50.352;19.390;2022-12-07T01:13:34;97182.82;;;0.94;100.00
50011;BME280;35899;50.352;19.390;2022-12-07T01:16:03;97187.53;;;0.93;100.00
50011;BME280;35899;50.352;19.390;2022-12-07T01:18:32;97168.16;;;0.78;100.00
50011;BME280;35899;50.352;19.390;2022-12-07T01:21:17;97168.16;;;0.78;100.00
50011;BME280;35899;50.352;19.390;2022-12-07T01:23:37;97186.16;;;0.86;100.00
50011;BME280;35899;50.352;19.390;2022-12-07T01:26:07;97178.92;;;0.85;100.00
50011;BME280;35899;50.352;19.390;2022-12-07T01:28:35;97184.88;;;0.86;100.00
50011;BME280;35899;50.352;19.390;2022-12-07T01:31:07;97180.20;;;0.85;100.00
50011;BME280;35899;50.352;19.390;2022-12-07T01:33:37;97176.77;;;0.86;100.00
50011;BME280;35899;50.352;19.390;2022-12-07T01:36:05;97178.41;;;0.87;100.00
50011;BME280;35899;50.352;19.390;2022-12-07T01:38:33;97174.15;;;0.88;100.00
50011;BME280;35899;50.352;19.390;2022-12-07T01:41:01;97179.77;;;0.86;100.00
50011;BME280;35899;50.352;19.390;2022-12-07T01:43:29;97174.20;;;0.86;100.00
50011;BME280;35899;50.352;19.390;2022-12-07T01:45:57;97172.87;;;0.88;100.00
50011;BME280;35899;50.352;19.390;2022-12-07T01:48:33;97166.09;;;0.87;100.00
50011;BME280;35899;50.352;19.390;2022-12-07T01:51:04;97168.58;;;0.88;100.00
50011;BME280;35899;50.352;19.390;2022-12-07T01:53:34;97166.85;;;0.89;100.00
50011;BME280;35899;50.352;19.390;2022-12-07T01:56:02;97166.48;;;0.88;100.00
50011;BME280;35899;50.352;19.390;2022-12-07T01:58:29;97163.53;;;0.87;100.00
50011;BME280;35899;50.352;19.390;2022-12-07T02:03:34;97159.34;;;0.86;100.00
50011;BME280;35899;50.352;19.390;2022-12-07T02:06:02;97163.59;;;0.85;100.00
50011;BME280;35899;50.352;19.390;2022-12-07T02:08:32;97160.98;;;0.87;100.00
50011;BME280;35899;50.352;19.390;2022-12-07T02:11:00;97155.93;;;0.85;100.00
50011;BME280;35899;50.352;19.390;2022-12-07T02:13:30;97157.66;;;0.85;100.00
50011;BME280;35899;50.352;19.390;2022-12-07T02:22:00;97160.09;;;0.88;100.00
50011;BME280;35899;50.352;19.390;2022-12-07T02:24:53;97162.56;;;0.89;100.00
50011;BME280;35899;50.352;19.390;2022-12-07T02:30:34;97159.58;;;0.90;100.00
50011;BME280;35899;50.352;19.390;2022-12-07T02:33:17;97163.31;;;0.91;100.00
50011;BME280;35899;50.352;19.390;2022-12-07T02:36:12;97164.53;;;0.93;100.00
50011;BME280;35899;50.352;19.390;2022-12-07T02:41:31;97158.30;;;0.90;100.00
50011;BME280;35899;50.352;19.390;2022-12-07T02:44:02;97156.57;;;0.90;100.00
50011;BME280;35899;50.352;19.390;2022-12-07T02:46:33;97152.80;;;0.89;100.00
50011;BME280;35899;50.352;19.390;2022-12-07T02:49:08;97128.10;;;0.79;100.00
50011;BME280;35899;50.352;19.390;2022-12-07T02:51:41;97128.10;;;0.79;100.00
50011;BME280;35899;50.352;19.390;2022-12-07T02:54:14;97149.27;;;0.91;100.00
50011;BME280;35899;50.352;19.390;2022-12-07T03:09:01;97132.99;;;0.94;100.00
50011;BME280;35899;50.352;19.390;2022-12-07T03:11:42;97129.98;;;0.94;100.00
50011;BME280;35899;50.352;19.390;2022-12-07T03:14:20;97126.97;;;0.95;100.00
50011;BME280;35899;50.352;19.390;2022-12-07T03:16:52;97125.33;;;0.94;100.00
50011;BME280;35899;50.352;19.390;2022-12-07T03:19:21;97131.72;;;0.94;100.00
50011;BME280;35899;50.352;19.390;2022-12-07T03:21:54;97133.88;;;0.93;100.00
50011;BME280;35899;50.352;19.390;2022-12-07T03:24:26;97132.23;;;0.92;100.00
50011;BME280;35899;50.352;19.390;2022-12-07T03:27:01;97130.04;;;0.93;100.00
50011;BME280;35899;50.352;19.390;2022-12-07T03:29:37;97131.72;;;0.94;100.00
50011;BME280;35899;50.352;19.390;2022-12-07T03:32:29;97128.19;;;0.96;100.00
50011;BME280;35899;50.352;19.390;2022-12-07T03:34:56;97121.34;;;0.97;100.00
50011;BME280;35899;50.352;19.390;2022-12-07T03:37:32;97115.86;;;0.96;100.00
50011;BME280;35899;50.352;19.390;2022-12-07T03:40:11;97116.75;;;0.95;100.00
50011;BME280;35899;50.352;19.390;2022-12-07T03:42:41;97117.20;;;0.94;100.00
50011;BME280;35899;50.352;19.390;2022-12-07T03:45:08;97118.55;;;0.93;100.00
50011;BME280;35899;50.352;19.390;2022-12-07T03:47:40;97114.28;;;0.93;100.00
50011;BME280;35899;50.352;19.390;2022-12-07T03:50:38;97114.28;;;0.93;100.00
50011;BME280;35899;50.352;19.390;2022-12-07T03:53:05;97106.23;;;0.92;100.00
50011;BME280;35899;50.352;19.390;2022-12-07T03:55:40;97110.52;;;0.92;100.00
50011;BME280;35899;50.352;19.390;2022-12-07T03:58:15;97108.33;;;0.93;100.00
50011;BME280;35899;50.352;19.390;2022-12-07T04:00:41;97107.50;;;0.92;100.00
50011;BME280;35899;50.352;19.390;2022-12-07T04:03:08;97105.41;;;0.92;100.00
50011;BME280;35899;50.352;19.390;2022-12-07T04:05:35;97109.66;;;0.91;100.00
50011;BME280;35899;50.352;19.390;2022-12-07T04:08:01;97109.66;;;0.91;100.00
50011;BME280;35899;50.352;19.390;2022-12-07T04:10:28;97113.95;;;0.91;100.00
50011;BME280;35899;50.352;19.390;2022-12-07T04:12:55;97099.12;;;0.80;100.00
50011;BME280;35899;50.352;19.390;2022-12-07T04:15:21;97099.12;;;0.80;100.00
50011;BME280;35899;50.352;19.390;2022-12-07T04:17:48;97112.22;;;0.91;100.00
50011;BME280;35899;50.352;19.390;2022-12-07T04:20:14;97112.22;;;0.91;100.00
50011;BME280;35899;50.352;19.390;2022-12-07T04:22:41;97108.14;;;0.87;100.00
50011;BME280;35899;50.352;19.390;2022-12-07T04:25:08;97109.88;;;0.87;100.00
50011;BME280;35899;50.352;19.390;2022-12-07T04:27:34;97103.38;;;0.80;100.00
50011;BME280;35899;50.352;19.390;2022-12-07T04:30:01;97114.53;;;0.87;100.00
50011;BME280;35899;50.352;19.390;2022-12-07T04:32:27;97084.62;;;0.70;100.00
50011;BME280;35899;50.352;19.390;2022-12-07T04:34:53;97110.64;;;0.89;100.00
50011;BME280;35899;50.352;19.390;2022-12-07T04:37:20;97105.98;;;0.88;100.00
50011;BME280;35899;50.352;19.390;2022-12-07T04:39:47;97105.98;;;0.88;100.00
50011;BME280;35899;50.352;19.390;2022-12-07T04:42:13;97109.00;;;0.88;100.00
50011;BME280;35899;50.352;19.390;2022-12-07T04:44:39;97107.33;;;0.87;100.00
50011;BME280;35899;50.352;19.390;2022-12-07T04:47:06;97107.78;;;0.86;100.00
50011;BME280;35899;50.352;19.390;2022-12-07T04:49:33;97110.70;;;0.87;100.00
50011;BME280;35899;50.352;19.390;2022-12-07T04:52:03;97110.70;;;0.87;100.00
50011;BME280;35899;50.352;19.390;2022-12-07T04:54:29;97104.31;;;0.87;100.00
50011;BME280;35899;50.352;19.390;2022-12-07T04:56:55;97110.27;;;0.88;100.00
50011;BME280;35899;50.352;19.390;2022-12-07T04:59:22;97110.27;;;0.88;100.00
50011;BME280;35899;50.352;19.390;2022-12-07T05:01:48;97103.89;;;0.88;100.00
50011;BME280;35899;50.352;19.390;2022-12-07T05:04:14;97088.96;;;0.78;100.00
50011;BME280;35899;50.352;19.390;2022-12-07T05:06:41;97112.31;;;0.90;100.00
50011;BME280;35899;50.352;19.390;2022-12-07T05:09:08;97112.31;;;0.90;100.00
50011;BME280;35899;50.352;19.390;2022-12-07T05:11:34;97095.71;;;0.80;100.00
50011;BME280;35899;50.352;19.390;2022-12-07T05:14:02;97114.47;;;0.89;100.00
50011;BME280;35899;50.352;19.390;2022-12-07T05:16:29;97104.02;;;0.85;100.00
50011;BME280;35899;50.352;19.390;2022-12-07T05:18:56;97105.11;;;0.79;100.00
50011;BME280;35899;50.352;19.390;2022-12-07T05:21:22;97108.64;;;0.76;100.00
50011;BME280;35899;50.352;19.390;2022-12-07T05:23:48;97112.02;;;0.77;100.00
50011;BME280;35899;50.352;19.390;2022-12-07T05:26:15;97097.60;;;0.66;100.00
50011;BME280;35899;50.352;19.390;2022-12-07T05:28:42;97097.60;;;0.66;100.00
50011;BME280;35899;50.352;19.390;2022-12-07T05:31:08;97112.98;;;0.74;100.00
50011;BME280;35899;50.352;19.390;2022-12-07T05:33:34;97110.04;;;0.73;100.00
50011;BME280;35899;50.352;19.390;2022-12-07T05:36:01;97118.98;;;0.73;100.00
50011;BME280;35899;50.352;19.390;2022-12-07T05:38:27;97111.38;;;0.72;100.00
50011;BME280;35899;50.352;19.390;2022-12-07T05:40:53;97112.72;;;0.70;100.00
50011;BME280;35899;50.352;19.390;2022-12-07T05:43:20;97113.63;;;0.69;100.00
50011;BME280;35899;50.352;19.390;2022-12-07T05:45:46;97110.77;;;0.67;100.00
50011;BME280;35899;50.352;19.390;2022-12-07T05:48:12;97106.66;;;0.63;100.00
50011;BME280;35899;50.352;19.390;2022-12-07T05:50:39;97109.31;;;0.61;100.00
50011;BME280;35899;50.352;19.390;2022-12-07T05:53:05;97113.56;;;0.61;100.00
50011;BME280;35899;50.352;19.390;2022-12-07T05:55:31;97105.59;;;0.58;100.00
50011;BME280;35899;50.352;19.390;2022-12-07T05:57:58;97112.11;;;0.55;100.00
50011;BME280;35899;50.352;19.390;2022-12-07T06:00:24;97111.67;;;0.55;100.00
50011;BME280;35899;50.352;19.390;2022-12-07T06:02:51;97113.78;;;0.56;100.00
50011;BME280;35899;50.352;19.390;2022-12-07T06:05:17;97115.42;;;0.57;100.00
50011;BME280;35899;50.352;19.390;2022-12-07T06:07:44;97108.22;;;0.56;100.00
50011;BME280;35899;50.352;19.390;2022-12-07T06:10:10;97116.33;;;0.56;100.00
50011;BME280;35899;50.352;19.390;2022-12-07T06:12:37;97114.59;;;0.56;100.00
50011;BME280;35899;50.352;19.390;2022-12-07T06:15:03;97113.84;;;0.54;100.00
50011;BME280;35899;50.352;19.390;2022-12-07T06:17:30;97112.95;;;0.55;100.00
50011;BME280;35899;50.352;19.390;2022-12-07T06:19:57;97119.70;;;0.56;100.00
50011;BME280;35899;50.352;19.390;2022-12-07T06:22:23;97119.64;;;0.58;100.00
50011;BME280;35899;50.352;19.390;2022-12-07T06:24:50;97122.20;;;0.58;100.00
50011;BME280;35899;50.352;19.390;2022-12-07T06:27:17;97126.09;;;0.56;100.00
50011;BME280;35899;50.352;19.390;2022-12-07T06:29:43;97124.88;;;0.55;100.00
50011;BME280;35899;50.352;19.390;2022-12-07T06:32:10;97134.27;;;0.54;100.00
50011;BME280;35899;50.352;19.390;2022-12-07T06:34:39;97126.14;;;0.55;100.00
50011;BME280;35899;50.352;19.390;2022-12-07T06:37:06;97131.71;;;0.54;100.00
50011;BME280;35899;50.352;19.390;2022-12-07T06:39:32;97132.53;;;0.55;100.00
50011;BME280;35899;50.352;19.390;2022-12-07T06:41:59;97135.48;;;0.56;100.00
50011;BME280;35899;50.352;19.390;2022-12-07T06:44:25;97131.59;;;0.57;100.00
50011;BME280;35899;50.352;19.390;2022-12-07T06:46:53;97133.17;;;0.60;100.00
50011;BME280;35899;50.352;19.390;2022-12-07T06:49:19;97137.77;;;0.62;100.00
50011;BME280;35899;50.352;19.390;2022-12-07T06:51:46;97133.94;;;0.62;100.00
50011;BME280;35899;50.352;19.390;2022-12-07T06:54:14;97133.11;;;0.62;100.00
50011;BME280;35899;50.352;19.390;2022-12-07T06:56:41;97136.13;;;0.61;100.00
50011;BME280;35899;50.352;19.390;2022-12-07T06:59:08;97137.77;;;0.62;100.00
50011;BME280;35899;50.352;19.390;2022-12-07T07:01:35;97138.28;;;0.60;100.00
50011;BME280;35899;50.352;19.390;2022-12-07T07:04:02;97137.52;;;0.58;100.00
50011;BME280;35899;50.352;19.390;2022-12-07T07:06:29;97140.89;;;0.58;100.00
50011;BME280;35899;50.352;19.390;2022-12-07T07:08:55;97134.91;;;0.60;100.00
50011;BME280;35899;50.352;19.390;2022-12-07T07:11:22;97133.17;;;0.60;100.00
50011;BME280;35899;50.352;19.390;2022-12-07T07:13:48;97134.45;;;0.60;100.00
50011;BME280;35899;50.352;19.390;2022-12-07T07:16:15;97138.28;;;0.60;100.00
50011;BME280;35899;50.352;19.390;2022-12-07T07:18:41;97140.38;;;0.61;100.00
50011;BME280;35899;50.352;19.390;2022-12-07T07:21:08;97140.84;;;0.60;100.00
50011;BME280;35899;50.352;19.390;2022-12-07T07:23:34;97142.52;;;0.61;100.00
50011;BME280;35899;50.352;19.390;2022-12-07T07:26:01;97134.45;;;0.60;100.00
50011;BME280;35899;50.352;19.390;2022-12-07T07:28:28;97139.56;;;0.60;100.00
50011;BME280;35899;50.352;19.390;2022-12-07T07:30:54;97139.05;;;0.62;100.00
50011;BME280;35899;50.352;19.390;2022-12-07T07:33:21;97141.59;;;0.62;100.00
50011;BME280;35899;50.352;19.390;2022-12-07T07:35:47;97149.14;;;0.65;100.00
50011;BME280;35899;50.352;19.390;2022-12-07T07:38:13;97141.42;;;0.67;100.00
50011;BME280;35899;50.352;19.390;2022-12-07T07:40:41;97151.63;;;0.67;100.00
50011;BME280;35899;50.352;19.390;2022-12-07T07:43:07;97139.29;;;0.66;100.00
50011;BME280;35899;50.352;19.390;2022-12-07T07:45:33;97148.11;;;0.69;100.00
50011;BME280;35899;50.352;19.390;2022-12-07T07:48:00;97146.44;;;0.68;100.00
50011;BME280;35899;50.352;19.390;2022-12-07T07:50:26;97143.82;;;0.70;100.00
50011;BME280;35899;50.352;19.390;2022-12-07T07:52:53;97147.98;;;0.72;100.00
50011;BME280;35899;50.352;19.390;2022-12-07T07:55:19;97149.63;;;0.73;100.00
50011;BME280;35899;50.352;19.390;2022-12-07T07:57:46;97147.47;;;0.74;100.00
50011;BME280;35899;50.352;19.390;2022-12-07T08:00:14;97162.28;;;0.76;100.00
50011;BME280;35899;50.352;19.390;2022-12-07T08:02:42;97157.08;;;0.78;100.00
50011;BME280;35899;50.352;19.390;2022-12-07T08:05:10;97156.59;;;0.80;100.00
50011;BME280;35899;50.352;19.390;2022-12-07T08:07:37;97151.73;;;0.84;100.00
50011;BME280;35899;50.352;19.390;2022-12-07T08:10:04;97160.98;;;0.87;100.00
50011;BME280;35899;50.352;19.390;2022-12-07T08:12:37;97154.38;;;0.91;100.00
50011;BME280;35899;50.352;19.390;2022-12-07T08:15:05;97161.04;;;0.95;100.00
50011;BME280;35899;50.352;19.390;2022-12-07T08:17:32;97162.04;;;1.02;100.00
50011;BME280;35899;50.352;19.390;2022-12-07T08:19:59;97156.65;;;1.08;100.00
50011;BME280;35899;50.352;19.390;2022-12-07T08:22:25;97155.95;;;1.14;100.00
50011;BME280;35899;50.352;19.390;2022-12-07T08:24:51;97159.95;;;1.20;100.00
50011;BME280;35899;50.352;19.390;2022-12-07T08:27:18;97159.78;;;1.33;100.00
50011;BME280;35899;50.352;19.390;2022-12-07T08:29:44;97159.78;;;1.33;100.00
50011;BME280;35899;50.352;19.390;2022-12-07T08:32:11;97166.34;;;1.39;100.00
50011;BME280;35899;50.352;19.390;2022-12-07T08:34:38;97162.52;;;1.48;100.00
50011;BME280;35899;50.352;19.390;2022-12-07T08:37:04;97167.05;;;1.51;100.00
50011;BME280;35899;50.352;19.390;2022-12-07T08:39:31;97149.67;;;1.49;100.00
50011;BME280;35899;50.352;19.390;2022-12-07T08:41:57;97149.67;;;1.49;100.00
50011;BME280;35899;50.352;19.390;2022-12-07T08:44:23;97162.80;;;1.61;100.00
50011;BME280;35899;50.352;19.390;2022-12-07T08:46:57;97164.70;;;1.66;100.00
50011;BME280;35899;50.352;19.390;2022-12-07T08:49:24;97164.53;;;1.69;100.00
50011;BME280;35899;50.352;19.390;2022-12-07T08:51:55;97171.69;;;1.71;100.00
50011;BME280;35899;50.352;19.390;2022-12-07T08:54:21;97182.16;;;1.75;100.00
50011;BME280;35899;50.352;19.390;2022-12-07T08:56:49;97173.49;;;1.69;100.00
50011;BME280;35899;50.352;19.390;2022-12-07T08:59:18;97178.19;;;1.78;100.00
50011;BME280;35899;50.352;19.390;2022-12-07T09:01:45;97179.70;;;1.82;100.00
50011;BME280;35899;50.352;19.390;2022-12-07T09:04:11;97159.29;;;1.72;100.00
50011;BME280;35899;50.352;19.390;2022-12-07T09:06:38;97159.75;;;1.71;100.00
50011;BME280;35899;50.352;19.390;2022-12-07T09:09:05;97177.00;;;1.85;100.00
50011;BME280;35899;50.352;19.390;2022-12-07T09:11:32;97185.73;;;1.81;100.00
50011;BME280;35899;50.352;19.390;2022-12-07T09:13:59;97175.23;;;1.77;100.00
50011;BME280;35899;50.352;19.390;2022-12-07T09:16:25;97177.72;;;1.70;100.00
50011;BME280;35899;50.352;19.390;2022-12-07T09:18:51;97181.98;;;1.69;100.00
50011;BME280;35899;50.352;19.390;2022-12-07T09:21:18;97182.09;;;1.68;100.00
50011;BME280;35899;50.352;19.390;2022-12-07T09:23:45;97177.92;;;1.65;100.00
50011;BME280;35899;50.352;19.390;2022-12-07T09:26:11;97175.42;;;1.64;100.00
50011;BME280;35899;50.352;19.390;2022-12-07T09:28:38;97169.12;;;1.62;100.00
50011;BME280;35899;50.352;19.390;2022-12-07T09:31:05;97175.42;;;1.64;100.00
50011;BME280;35899;50.352;19.390;2022-12-07T09:33:32;97172.86;;;1.64;100.00
50011;BME280;35899;50.352;19.390;2022-12-07T09:35:58;97170.93;;;1.60;100.00
50011;BME280;35899;50.352;19.390;2022-12-07T09:38:25;97168.95;;;1.56;100.00
50011;BME280;35899;50.352;19.390;2022-12-07T09:40:51;97169.61;;;1.51;100.00
50011;BME280;35899;50.352;19.390;2022-12-07T09:43:24;97161.05;;;1.52;100.00
50011;BME280;35899;50.352;19.390;2022-12-07T09:45:53;97161.05;;;1.52;100.00
50011;BME280;35899;50.352;19.390;2022-12-07T09:48:33;97162.23;;;1.54;100.00
50011;BME280;35899;50.352;19.390;2022-12-07T09:51:00;97163.91;;;1.55;100.00
50011;BME280;35899;50.352;19.390;2022-12-07T09:53:36;97162.76;;;1.52;100.00
50011;BME280;35899;50.352;19.390;2022-12-07T09:56:04;97161.55;;;1.50;100.00
50011;BME280;35899;50.352;19.390;2022-12-07T09:58:32;97161.55;;;1.50;100.00
50011;BME280;35899;50.352;19.390;2022-12-07T10:01:20;97139.17;;;1.36;100.00
50011;BME280;35899;50.352;19.390;2022-12-07T10:03:53;97156.95;;;1.48;100.00
50011;BME280;35899;50.352;19.390;2022-12-07T10:06:20;97155.15;;;1.50;100.00
50011;BME280;35899;50.352;19.390;2022-12-07T10:08:47;97154.89;;;1.56;100.00
50011;BME280;35899;50.352;19.390;2022-12-07T10:11:14;97149.09;;;1.62;100.00
50011;BME280;35899;50.352;19.390;2022-12-07T10:13:47;97147.61;;;1.66;100.00
50011;BME280;35899;50.352;19.390;2022-12-07T10:19:26;97138.20;;;1.67;100.00
50011;BME280;35899;50.352;19.390;2022-12-07T10:22:13;97136.03;;;1.68;100.00
50011;BME280;35899;50.352;19.390;2022-12-07T10:24:47;97137.84;;;1.66;100.00
50011;BME280;35899;50.352;19.390;2022-12-07T10:27:32;97130.66;;;1.64;100.00
50011;BME280;35899;50.352;19.390;2022-12-07T10:29:59;97123.51;;;1.62;100.00
50011;BME280;35899;50.352;19.390;2022-12-07T10:32:29;97119.93;;;1.66;100.00
50011;BME280;35899;50.352;19.390;2022-12-07T10:37:52;97114.92;;;2.08;100.00
50011;BME280;35899;50.352;19.390;2022-12-07T10:51:39;97105.05;;;2.68;100.00
50011;BME280;35899;50.352;19.390;2022-12-07T10:57:43;97100.98;;;2.73;100.00
50011;BME280;35899;50.352;19.390;2022-12-07T11:00:21;97100.20;;;2.80;100.00
50011;BME280;35899;50.352;19.390;2022-12-07T11:03:20;97098.08;;;2.88;100.00
50011;BME280;35899;50.352;19.390;2022-12-07T11:08:47;97096.55;;;2.92;100.00
50011;BME280;35899;50.352;19.390;2022-12-07T11:11:19;97096.27;;;2.90;100.00
50011;BME280;35899;50.352;19.390;2022-12-07T11:14:05;97095.31;;;2.84;100.00
50011;BME280;35899;50.352;19.390;2022-12-07T11:16:56;97095.53;;;2.79;100.00
50011;BME280;35899;50.352;19.390;2022-12-07T11:19:51;97095.25;;;2.77;100.00
50011;BME280;35899;50.352;19.390;2022-12-07T11:25:27;97087.57;;;2.68;100.00
50011;BME280;35899;50.352;19.390;2022-12-07T11:34:00;97073.41;;;2.69;100.00
50011;BME280;35899;50.352;19.390;2022-12-07T11:36:41;97073.20;;;2.65;100.00
50011;BME280;35899;50.352;19.390;2022-12-07T11:39:36;97070.49;;;2.60;100.00
50011;BME280;35899;50.352;19.390;2022-12-07T11:42:26;97067.41;;;2.53;100.00
50011;BME280;35899;50.352;19.390;2022-12-07T11:44:59;97067.58;;;2.50;100.00
50011;BME280;35899;50.352;19.390;2022-12-07T11:48:29;97064.20;;;2.41;100.00
50011;BME280;35899;50.352;19.390;2022-12-07T11:50:27;97046.75;;;2.31;100.00
50011;BME280;35899;50.352;19.390;2022-12-07T11:53:04;97056.84;;;2.34;100.00
50011;BME280;35899;50.352;19.390;2022-12-07T11:55:45;97052.33;;;2.31;100.00
50011;BME280;35899;50.352;19.390;2022-12-07T12:01:28;97029.53;;;2.09;100.00
50011;BME280;35899;50.352;19.390;2022-12-07T12:04:18;97029.53;;;2.09;100.00
50011;BME280;35899;50.352;19.390;2022-12-07T12:07:00;97047.59;;;2.23;100.00
50011;BME280;35899;50.352;19.390;2022-12-07T12:09:29;97055.11;;;2.26;100.00
50011;BME280;35899;50.352;19.390;2022-12-07T12:20:50;97064.14;;;2.33;100.00
50011;BME280;35899;50.352;19.390;2022-12-07T12:23:24;97057.80;;;2.41;100.00
50011;BME280;35899;50.352;19.390;2022-12-07T12:25:59;97061.71;;;2.48;100.00
50011;BME280;35899;50.352;19.390;2022-12-07T12:28:41;97061.53;;;2.60;100.00
50011;BME280;35899;50.352;19.390;2022-12-07T12:33:56;97055.88;;;2.78;100.00
50011;BME280;35899;50.352;19.390;2022-12-07T12:39:16;97051.87;;;2.89;100.00
50011;BME280;35899;50.352;19.390;2022-12-07T12:46:58;97041.99;;;2.82;100.00
50011;BME280;35899;50.352;19.390;2022-12-07T12:49:38;97039.41;;;2.74;100.00
50011;BME280;35899;50.352;19.390;2022-12-07T12:57:38;97036.19;;;2.62;100.00
50011;BME280;35899;50.352;19.390;2022-12-07T13:00:22;97039.67;;;2.61;100.00
50011;BME280;35899;50.352;19.390;2022-12-07T13:02:55;97031.14;;;2.61;100.00
50011;BME280;35899;50.352;19.390;2022-12-07T13:05:25;97029.78;;;2.62;100.00
50011;BME280;35899;50.352;19.390;2022-12-07T13:07:57;97028.71;;;2.66;100.00
50011;BME280;35899;50.352;19.390;2022-12-07T13:10:37;97030.05;;;2.73;100.00
50011;BME280;35899;50.352;19.390;2022-12-07T13:15:52;97027.16;;;2.80;100.00
50011;BME280;35899;50.352;19.390;2022-12-07T13:29:11;97034.22;;;2.67;100.00
50011;BME280;35899;50.352;19.390;2022-12-07T13:39:54;97038.48;;;2.51;100.00
50011;BME280;35899;50.352;19.390;2022-12-07T13:45:00;97044.92;;;2.42;100.00
50011;BME280;35899;50.352;19.390;2022-12-07T13:47:38;97045.53;;;2.39;100.00
50011;BME280;35899;50.352;19.390;2022-12-07T13:50:31;97039.28;;;2.35;100.00
50011;BME280;35899;50.352;19.390;2022-12-07T13:52:58;97036.04;;;2.32;100.00
50011;BME280;35899;50.352;19.390;2022-12-07T13:55:27;97029.74;;;2.30;100.00
50011;BME280;35899;50.352;19.390;2022-12-07T13:57:55;97035.47;;;2.27;100.00
50011;BME280;35899;50.352;19.390;2022-12-07T14:00:27;97037.64;;;2.26;100.00
50011;BME280;35899;50.352;19.390;2022-12-07T14:05:35;97039.59;;;2.21;100.00
50011;BME280;35899;50.352;19.390;2022-12-07T14:08:04;97041.94;;;2.17;100.00
50011;BME280;35899;50.352;19.390;2022-12-07T14:13:39;97045.64;;;2.11;100.00
50011;BME280;35899;50.352;19.390;2022-12-07T14:16:27;97046.70;;;2.07;100.00
50011;BME280;35899;50.352;19.390;2022-12-07T14:19:00;97049.80;;;2.05;100.00
50011;BME280;35899;50.352;19.390;2022-12-07T14:21:31;97053.34;;;2.02;100.00
50011;BME280;35899;50.352;19.390;2022-12-07T14:24:09;97055.97;;;2.01;100.00
50011;BME280;35899;50.352;19.390;2022-12-07T14:26:34;97035.66;;;1.89;100.00
50011;BME280;35899;50.352;19.390;2022-12-07T14:32:20;97056.36;;;1.93;100.00
50011;BME280;35899;50.352;19.390;2022-12-07T14:35:07;97059.80;;;1.92;100.00
50011;BME280;35899;50.352;19.390;2022-12-07T14:37:39;97047.02;;;1.83;100.00
50011;BME280;35899;50.352;19.390;2022-12-07T14:40:09;97063.06;;;1.87;100.00
50011;BME280;35899;50.352;19.390;2022-12-07T14:42:38;97069.53;;;1.85;100.00
50011;BME280;35899;50.352;19.390;2022-12-07T14:45:10;97046.39;;;1.69;100.00
50011;BME280;35899;50.352;19.390;2022-12-07T14:47:39;97076.59;;;1.80;100.00
50011;BME280;35899;50.352;19.390;2022-12-07T14:50:07;97069.15;;;1.75;100.00
50011;BME280;35899;50.352;19.390;2022-12-07T14:52:34;97072.44;;;1.69;100.00
50011;BME280;35899;50.352;19.390;2022-12-07T14:55:01;97080.64;;;1.67;100.00
50011;BME280;35899;50.352;19.390;2022-12-07T14:57:27;97080.64;;;1.67;100.00
50011;BME280;35899;50.352;19.390;2022-12-07T14:59:54;97071.08;;;1.53;100.00
50011;BME280;35899;50.352;19.390;2022-12-07T15:02:20;97083.11;;;1.60;100.00
50011;BME280;35899;50.352;19.390;2022-12-07T15:04:48;97081.92;;;1.58;100.00
50011;BME280;35899;50.352;19.390;2022-12-07T15:07:20;97089.27;;;1.55;100.00